createdAt,value
2022-08-05T00:00:18.717Z,3.90
2022-08-05T00:02:51.549Z,4.10
2022-08-05T00:06:02.764Z,3.60
2022-08-05T00:08:32.603Z,3.67
2022-08-05T00:11:04.259Z,4.60
2022-08-05T00:13:38.892Z,4.40
2022-08-05T00:16:12.356Z,3.87
2022-08-05T00:18:44.325Z,4.23
2022-08-05T00:21:17.604Z,4.30
2022-08-05T00:23:53.671Z,9.43
2022-08-05T00:26:34.722Z,5.20
2022-08-05T00:29:01.561Z,4.73
2022-08-05T00:31:54.148Z,5.50
2022-08-05T00:34:53.350Z,4.93
2022-08-05T00:37:13.107Z,4.50
2022-08-05T00:39:58.145Z,6.07
2022-08-05T00:42:34.588Z,4.87
2022-08-05T00:45:03.564Z,4.90
2022-08-05T00:47:53.228Z,6.60
2022-08-05T00:50:17.807Z,4.50
2022-08-05T00:52:46.977Z,4.10
2022-08-05T00:55:16.306Z,5.67
2022-08-05T00:57:58.643Z,4.33
2022-08-05T01:00:28.796Z,4.10
2022-08-05T01:02:59.707Z,4.33
2022-08-05T01:05:30.704Z,4.17
2022-08-05T01:08:41.411Z,4.33
2022-08-05T01:11:00.860Z,4.03
2022-08-05T01:13:58.716Z,4.53
2022-08-05T01:16:47.276Z,4.50
2022-08-05T01:19:56.844Z,4.63
2022-08-05T01:22:46.844Z,8.00
2022-08-05T01:25:53.843Z,4.43
2022-08-05T01:28:50.188Z,3.67
2022-08-05T01:31:45.202Z,4.47
2022-08-05T01:34:42.797Z,4.20
2022-08-05T01:37:44.324Z,4.00
2022-08-05T01:40:14.021Z,4.20
2022-08-05T01:42:51.201Z,3.77
2022-08-05T01:45:22.307Z,6.00
2022-08-05T01:47:55.597Z,3.93
2022-08-05T01:50:31.493Z,4.20
2022-08-05T01:53:11.437Z,3.93
2022-08-05T01:55:45.469Z,3.60
2022-08-05T01:58:16.659Z,4.37
2022-08-05T02:00:50.857Z,4.00
2022-08-05T02:03:32.129Z,3.90
2022-08-05T02:06:37.203Z,5.27
2022-08-05T02:08:58.382Z,5.23
2022-08-05T02:11:33.395Z,4.13
2022-08-05T02:14:14.346Z,4.43
2022-08-05T02:16:53.427Z,5.07
2022-08-05T02:19:49.604Z,4.10
2022-08-05T02:22:26.661Z,5.47
2022-08-05T02:25:03.255Z,4.43
2022-08-05T02:27:58.353Z,4.33
2022-08-05T02:30:51.825Z,4.40
2022-08-05T02:33:36.274Z,6.63
2022-08-05T02:36:15.537Z,4.40
2022-08-05T02:38:53.478Z,4.80
2022-08-05T02:41:28.310Z,7.23
2022-08-05T02:44:13.110Z,9.57
2022-08-05T02:46:58.570Z,4.27
2022-08-05T02:49:36.863Z,6.07
2022-08-05T02:52:29.590Z,4.60
2022-08-05T02:55:05.374Z,3.90
2022-08-05T02:58:10.618Z,4.03
2022-08-05T03:00:25.392Z,3.50
2022-08-05T03:02:59.155Z,3.97
2022-08-05T03:06:56.937Z,3.70
2022-08-05T03:08:17.295Z,4.50
2022-08-05T03:11:01.320Z,4.47
2022-08-05T03:13:51.630Z,4.27
2022-08-05T03:16:32.368Z,6.30
2022-08-05T03:19:01.354Z,5.97
2022-08-05T03:21:41.648Z,4.87
2022-08-05T03:24:29.621Z,4.83
2022-08-05T03:26:59.867Z,5.17
2022-08-05T03:29:59.605Z,7.37
2022-08-05T03:32:22.045Z,5.17
2022-08-05T03:35:00.914Z,4.93
2022-08-05T03:37:30.885Z,4.73
2022-08-05T03:40:13.033Z,5.37
2022-08-05T03:42:52.393Z,5.87
2022-08-05T03:45:22.739Z,5.07
2022-08-05T03:47:51.415Z,5.43
2022-08-05T03:50:23.205Z,4.60
2022-08-05T03:55:53.091Z,5.10
2022-08-05T03:56:27.815Z,5.87
2022-08-05T03:59:03.791Z,4.10
2022-08-05T04:01:39.647Z,5.00
2022-08-05T04:04:10.967Z,4.10
2022-08-05T04:06:47.900Z,5.77
2022-08-05T04:09:26.000Z,5.10
2022-08-05T04:11:56.465Z,4.97
2022-08-05T04:14:30.165Z,5.30
2022-08-05T04:17:00.777Z,4.27
2022-08-05T04:19:31.213Z,7.27
2022-08-05T04:22:09.352Z,4.67
2022-08-05T04:24:52.747Z,5.07
2022-08-05T04:27:41.663Z,5.13
2022-08-05T04:30:14.024Z,4.50
2022-08-05T04:32:43.725Z,4.27
2022-08-05T04:35:17.510Z,5.80
2022-08-05T04:38:00.988Z,4.93
2022-08-05T04:40:36.133Z,4.60
2022-08-05T04:43:03.870Z,4.60
2022-08-05T04:45:48.798Z,5.23
2022-08-05T04:48:18.609Z,4.60
2022-08-05T04:51:02.565Z,4.67
2022-08-05T04:53:33.969Z,4.83
2022-08-05T04:56:33.517Z,4.90
2022-08-05T04:58:53.962Z,4.70
2022-08-05T05:02:04.083Z,4.90
2022-08-05T05:04:12.801Z,5.67
2022-08-05T05:06:49.287Z,4.80
2022-08-05T05:09:24.287Z,5.30
2022-08-05T05:11:57.826Z,5.03
2022-08-05T05:14:32.370Z,4.40
2022-08-05T05:17:03.478Z,5.47
2022-08-05T05:19:36.631Z,5.00
2022-08-05T05:22:24.364Z,5.57
2022-08-05T05:25:01.399Z,5.03
2022-08-05T05:27:48.530Z,5.37
2022-08-05T05:30:30.506Z,5.10
2022-08-05T05:33:15.910Z,5.17
2022-08-05T05:35:48.328Z,4.97
2022-08-05T05:38:22.507Z,6.07
2022-08-05T05:40:58.087Z,5.57
2022-08-05T05:43:57.984Z,6.07
2022-08-05T05:46:17.360Z,5.70
2022-08-05T05:48:47.893Z,5.97
2022-08-05T05:51:23.529Z,7.70
2022-08-05T05:53:58.992Z,6.63
2022-08-05T05:56:34.131Z,7.07
2022-08-05T05:59:05.602Z,6.30
2022-08-05T06:01:38.219Z,6.47
2022-08-05T06:04:14.440Z,6.57
2022-08-05T06:06:50.052Z,7.23
2022-08-05T06:09:24.826Z,6.47
2022-08-05T06:12:02.154Z,6.57
2022-08-05T06:14:31.354Z,6.53
2022-08-05T06:16:59.334Z,5.97
2022-08-05T06:19:35.599Z,6.03
2022-08-05T06:22:09.398Z,6.27
2022-08-05T06:24:46.680Z,6.37
2022-08-05T06:28:12.821Z,6.50
2022-08-05T06:30:20.034Z,6.27
2022-08-05T06:32:48.568Z,6.30
2022-08-05T06:36:04.175Z,6.43
2022-08-05T06:38:12.431Z,5.97
2022-08-05T06:40:45.844Z,6.20
2022-08-05T06:43:59.084Z,6.53
2022-08-05T06:46:07.310Z,6.37
2022-08-05T06:48:55.740Z,6.03
2022-08-05T06:51:29.905Z,6.57
2022-08-05T06:54:06.007Z,6.30
2022-08-05T06:56:35.272Z,5.83
2022-08-05T06:59:09.582Z,6.40
2022-08-05T07:01:43.885Z,6.30
2022-08-05T07:04:14.043Z,6.13
2022-08-05T07:06:50.472Z,6.50
2022-08-05T07:09:24.940Z,5.43
2022-08-05T07:11:55.792Z,5.30
2022-08-05T07:14:50.709Z,5.87
2022-08-05T07:18:00.162Z,8.00
2022-08-05T07:20:33.343Z,6.20
2022-08-05T07:23:01.074Z,6.23
2022-08-05T07:25:55.948Z,6.10
2022-08-05T07:28:20.710Z,6.90
2022-08-05T07:30:52.866Z,6.67
2022-08-05T07:33:37.233Z,5.70
2022-08-05T07:36:20.141Z,6.73
2022-08-05T07:38:55.239Z,6.83
2022-08-05T07:42:14.027Z,7.97
2022-08-05T07:44:18.924Z,6.17
2022-08-05T07:46:48.560Z,6.73
2022-08-05T07:49:20.407Z,6.83
2022-08-05T07:51:54.572Z,7.97
2022-08-05T07:54:33.648Z,6.97
2022-08-05T07:57:18.131Z,5.87
2022-08-05T08:00:00.703Z,6.83
2022-08-05T08:02:31.287Z,6.33
2022-08-05T08:05:17.536Z,6.43
2022-08-05T08:07:59.669Z,6.10
2022-08-05T08:10:30.422Z,6.13
2022-08-05T08:12:59.799Z,5.80
2022-08-05T08:16:35.713Z,5.83
2022-08-05T08:18:15.819Z,5.63
2022-08-05T08:21:02.320Z,5.23
2022-08-05T08:24:02.683Z,4.97
2022-08-05T08:26:29.652Z,5.40
2022-08-05T08:29:02.312Z,5.70
2022-08-05T08:31:50.252Z,5.40
2022-08-05T08:34:30.187Z,5.23
2022-08-05T08:37:04.860Z,5.13
2022-08-05T08:39:38.187Z,4.80
2022-08-05T08:42:34.570Z,5.07
2022-08-05T08:45:20.238Z,5.00
2022-08-05T08:48:11.371Z,5.00
2022-08-05T08:51:03.885Z,4.97
2022-08-05T08:53:44.980Z,4.87
2022-08-05T08:56:15.011Z,5.63
2022-08-05T08:58:48.677Z,4.80
2022-08-05T09:01:18.345Z,5.03
2022-08-05T09:03:57.615Z,4.47
2022-08-05T09:06:30.543Z,5.07
2022-08-05T09:09:02.019Z,5.10
2022-08-05T09:11:51.177Z,6.13
2022-08-05T09:14:56.617Z,4.83
2022-08-05T09:17:40.106Z,4.97
2022-08-05T09:20:05.049Z,4.63
2022-08-05T09:23:19.748Z,4.70
2022-08-05T09:26:09.228Z,4.60
2022-08-05T09:28:39.249Z,5.20
2022-08-05T09:31:43.176Z,4.83
2022-08-05T09:34:05.850Z,4.80
2022-08-05T09:36:54.930Z,5.13
2022-08-05T09:39:41.268Z,5.20
2022-08-05T09:42:24.522Z,5.27
2022-08-05T09:46:04.904Z,5.00
2022-08-05T09:47:56.086Z,5.27
2022-08-05T09:50:37.603Z,4.50
2022-08-05T09:53:17.122Z,4.53
2022-08-05T09:56:12.611Z,4.90
2022-08-05T09:58:41.956Z,4.60
2022-08-05T10:01:32.104Z,5.10
2022-08-05T10:04:13.919Z,4.87
2022-08-05T10:07:01.679Z,4.70
2022-08-05T10:10:13.789Z,4.40
2022-08-05T10:13:03.307Z,4.10
2022-08-05T10:15:41.671Z,5.10
2022-08-05T10:18:25.912Z,4.50
2022-08-05T10:20:59.827Z,4.30
2022-08-05T10:23:58.775Z,4.87
2022-08-05T10:26:24.208Z,4.80
2022-08-05T10:28:58.695Z,5.20
2022-08-05T10:32:53.302Z,4.83
2022-08-05T10:34:20.069Z,4.60
2022-08-05T10:37:00.803Z,4.20
2022-08-05T10:39:59.346Z,4.30
2022-08-05T10:42:33.924Z,5.37
2022-08-05T10:45:21.599Z,4.73
2022-08-05T10:48:31.360Z,4.57
2022-08-05T10:51:06.146Z,5.00
2022-08-05T10:53:58.383Z,4.70
2022-08-05T10:56:44.084Z,4.87
2022-08-05T11:00:02.043Z,4.63
2022-08-05T11:02:14.758Z,4.83
2022-08-05T11:05:03.477Z,4.10
2022-08-05T11:07:33.056Z,4.50
2022-08-05T11:10:29.134Z,4.90
2022-08-05T11:13:03.571Z,4.77
2022-08-05T11:16:01.171Z,4.20
2022-08-05T11:18:32.288Z,4.10
2022-08-05T11:21:11.497Z,4.07
2022-08-05T11:24:04.559Z,4.23
2022-08-05T11:26:49.701Z,4.40
2022-08-05T11:29:43.066Z,4.20
2022-08-05T11:32:34.764Z,5.60
2022-08-05T11:35:02.616Z,5.33
2022-08-05T11:38:37.400Z,5.13
2022-08-05T11:41:03.465Z,4.60
2022-08-05T11:44:07.590Z,4.40
2022-08-05T11:47:12.044Z,4.67
2022-08-05T11:49:50.932Z,5.63
2022-08-05T11:52:29.937Z,5.90
2022-08-05T11:55:07.458Z,5.73
2022-08-05T11:58:08.446Z,5.70
2022-08-05T12:00:38.515Z,5.00
2022-08-05T12:03:29.132Z,5.57
2022-08-05T12:06:02.444Z,5.33
2022-08-05T12:08:32.753Z,4.73
2022-08-05T12:11:10.153Z,5.87
2022-08-05T12:13:58.732Z,5.90
2022-08-05T12:16:41.294Z,5.47
2022-08-05T12:20:25.265Z,5.43
2022-08-05T12:22:09.726Z,5.43
2022-08-05T12:24:49.735Z,5.43
2022-08-05T12:27:34.509Z,6.20
2022-08-05T12:30:16.474Z,5.40
2022-08-05T12:32:53.725Z,5.87
2022-08-05T12:35:39.408Z,5.20
2022-08-05T12:38:10.964Z,5.10
2022-08-05T12:40:40.219Z,5.43
2022-08-05T12:43:11.605Z,5.20
2022-08-05T12:45:56.878Z,5.50
2022-08-05T12:48:40.797Z,5.27
2022-08-05T12:52:09.913Z,5.60
2022-08-05T12:54:16.860Z,6.80
2022-08-05T12:56:55.995Z,6.73
2022-08-05T12:59:46.427Z,6.20
2022-08-05T13:02:30.379Z,6.27
2022-08-05T13:05:00.232Z,6.13
2022-08-05T13:07:57.123Z,6.63
2022-08-05T13:10:21.863Z,5.87
2022-08-05T13:12:58.159Z,6.57
2022-08-05T13:15:36.076Z,6.57
2022-08-05T13:18:21.275Z,5.70
2022-08-05T13:20:50.837Z,5.33
2022-08-05T13:23:22.712Z,5.57
2022-08-05T13:25:59.446Z,5.50
2022-08-05T13:28:32.273Z,5.27
2022-08-05T13:31:11.215Z,4.90
2022-08-05T13:34:23.462Z,5.20
2022-08-05T13:36:35.624Z,5.37
2022-08-05T13:39:24.661Z,5.10
2022-08-05T13:41:58.604Z,5.87
2022-08-05T13:44:28.051Z,5.07
2022-08-05T13:47:05.031Z,5.60
2022-08-05T13:49:36.138Z,5.50
2022-08-05T13:52:14.801Z,5.80
2022-08-05T13:54:42.203Z,6.00
2022-08-05T13:57:14.979Z,5.60
2022-08-05T13:59:59.419Z,5.33
2022-08-05T14:02:29.830Z,6.33
2022-08-05T14:05:15.472Z,7.13
2022-08-05T14:08:00.017Z,5.90
2022-08-05T14:10:32.955Z,5.80
2022-08-05T14:13:02.842Z,5.97
2022-08-05T14:16:06.162Z,6.17
2022-08-05T14:18:23.346Z,6.07
2022-08-05T14:20:54.731Z,5.90
2022-08-05T14:23:26.228Z,6.77
2022-08-05T14:25:59.127Z,7.10
2022-08-05T14:28:30.577Z,6.47
2022-08-05T14:31:03.135Z,6.30
2022-08-05T14:34:00.050Z,6.30
2022-08-05T14:36:26.957Z,7.03
2022-08-05T14:38:53.923Z,7.03
2022-08-05T14:41:23.193Z,8.07
2022-08-05T14:44:02.417Z,7.43
2022-08-05T14:46:36.906Z,8.03
2022-08-05T14:49:08.127Z,8.00
2022-08-05T14:51:43.606Z,7.17
2022-08-05T14:54:28.350Z,7.83
2022-08-05T14:56:58.519Z,7.20
2022-08-05T14:59:29.374Z,7.23
2022-08-05T15:01:57.530Z,7.90
2022-08-05T15:04:27.440Z,8.10
2022-08-05T15:06:58.299Z,8.23
2022-08-05T15:09:51.770Z,7.93
2022-08-05T15:12:17.462Z,9.40
2022-08-05T15:14:50.325Z,7.53
2022-08-05T15:17:46.468Z,8.20
2022-08-05T15:20:24.585Z,7.53
2022-08-05T15:22:54.179Z,7.40
2022-08-05T15:25:41.047Z,9.57
2022-08-05T15:28:14.750Z,9.40
2022-08-05T15:30:46.650Z,8.70
2022-08-05T15:34:04.760Z,7.77
2022-08-05T15:36:17.438Z,6.53
2022-08-05T15:40:41.353Z,6.47
2022-08-05T15:41:58.251Z,6.60
2022-08-05T15:44:30.831Z,6.23
2022-08-05T15:47:06.103Z,6.33
2022-08-05T15:49:53.685Z,6.13
2022-08-05T15:52:53.911Z,5.90
2022-08-05T15:55:16.053Z,4.87
2022-08-05T15:57:43.681Z,5.83
2022-08-05T16:00:13.175Z,5.23
2022-08-05T16:02:43.861Z,4.47
2022-08-05T16:05:13.221Z,4.87
2022-08-05T16:07:46.531Z,4.90
2022-08-05T16:10:15.919Z,4.00
2022-08-05T16:12:52.188Z,3.93
2022-08-05T16:15:21.841Z,3.70
2022-08-05T16:17:57.935Z,3.70
2022-08-05T16:20:25.806Z,3.37
2022-08-05T16:22:55.023Z,3.40
2022-08-05T16:25:34.146Z,3.67
2022-08-05T16:28:06.588Z,3.73
2022-08-05T16:30:37.832Z,3.17
2022-08-05T16:33:07.032Z,3.70
2022-08-05T16:35:41.998Z,3.37
2022-08-05T16:38:23.877Z,3.53
2022-08-05T16:41:00.128Z,3.73
2022-08-05T16:43:36.507Z,3.07
2022-08-05T16:46:23.595Z,3.17
2022-08-05T16:48:51.049Z,2.87
2022-08-05T16:51:18.800Z,2.87
2022-08-05T16:54:04.956Z,2.70
2022-08-05T16:56:36.287Z,2.80
2022-08-05T16:59:08.316Z,2.60
2022-08-05T17:01:52.827Z,2.80
2022-08-05T17:04:28.664Z,2.80
2022-08-05T17:07:03.218Z,3.07
2022-08-05T17:09:57.319Z,2.77
2022-08-05T17:12:22.665Z,2.87
2022-08-05T17:15:15.516Z,2.90
2022-08-05T17:17:48.813Z,3.47
2022-08-05T17:20:21.215Z,3.83
2022-08-05T17:22:55.376Z,3.50
2022-08-05T17:25:39.708Z,3.17
2022-08-05T17:28:09.938Z,3.47
2022-08-05T17:30:50.328Z,3.20
2022-08-05T17:33:21.110Z,3.40
2022-08-05T17:36:09.604Z,3.30
2022-08-05T17:38:39.715Z,4.97
2022-08-05T17:41:22.983Z,3.13
2022-08-05T17:43:58.396Z,2.77
2022-08-05T17:46:25.881Z,2.70
2022-08-05T17:48:52.668Z,2.90
2022-08-05T17:51:21.886Z,3.20
2022-08-05T17:53:54.794Z,3.20
2022-08-05T17:56:22.815Z,3.30
2022-08-05T17:58:50.057Z,3.03
2022-08-05T18:01:20.722Z,2.70
2022-08-05T18:03:58.376Z,2.90
2022-08-05T18:06:32.915Z,2.80
2022-08-05T18:09:00.292Z,2.90
2022-08-05T18:11:33.136Z,3.00
2022-08-05T18:14:07.439Z,3.17
2022-08-05T18:16:43.744Z,3.00
2022-08-05T18:19:18.713Z,2.90
2022-08-05T18:22:09.060Z,3.20
2022-08-05T18:24:40.023Z,3.27
2022-08-05T18:27:18.157Z,3.63
2022-08-05T18:29:53.654Z,3.63
2022-08-05T18:32:28.193Z,3.60
2022-08-05T18:34:59.891Z,3.80
2022-08-05T18:37:34.780Z,3.40
2022-08-05T18:40:34.289Z,2.90
2022-08-05T18:43:00.560Z,4.60
2022-08-05T18:45:41.921Z,3.27
2022-08-05T18:48:11.293Z,3.07
2022-08-05T18:52:02.758Z,3.10
2022-08-05T18:53:50.275Z,3.13
2022-08-05T18:56:25.307Z,2.90
2022-08-05T18:58:53.541Z,2.87
2022-08-05T19:01:33.413Z,2.80
2022-08-05T19:04:23.950Z,3.17
2022-08-05T19:06:56.075Z,2.70
2022-08-05T19:09:22.845Z,3.40
2022-08-05T19:12:01.083Z,2.97
2022-08-05T19:14:53.184Z,3.20
2022-08-05T19:17:22.606Z,2.97
2022-08-05T19:19:55.348Z,3.13
2022-08-05T19:22:29.828Z,2.90
2022-08-05T19:25:02.546Z,3.10
2022-08-05T19:27:30.453Z,3.20
2022-08-05T19:29:58.168Z,3.10
2022-08-05T19:32:26.106Z,3.00
2022-08-05T19:34:57.771Z,3.47
2022-08-05T19:37:29.634Z,2.90
2022-08-05T19:40:02.017Z,3.10
2022-08-05T19:42:37.132Z,3.00
2022-08-05T19:45:07.263Z,3.03
2022-08-05T19:47:37.997Z,2.90
2022-08-05T19:50:11.811Z,3.40
2022-08-05T19:52:41.445Z,3.20
2022-08-05T19:56:14.155Z,3.50
2022-08-05T19:58:14.659Z,4.53
2022-08-05T20:00:45.525Z,3.40
2022-08-05T20:03:17.316Z,3.20
2022-08-05T20:05:51.270Z,3.73
2022-08-05T20:08:24.551Z,6.93
2022-08-05T20:10:55.038Z,5.97
2022-08-05T20:13:54.768Z,5.00
2022-08-05T20:16:13.289Z,4.83
2022-08-05T20:18:55.394Z,4.23
2022-08-05T20:21:25.558Z,4.30
2022-08-05T20:23:58.483Z,3.67
2022-08-05T20:26:27.661Z,3.60
2022-08-05T20:28:57.916Z,3.10
2022-08-05T20:31:42.817Z,3.00
2022-08-05T20:34:17.579Z,2.90
2022-08-05T20:36:44.576Z,2.70
2022-08-05T20:39:16.186Z,2.70
2022-08-05T20:41:45.254Z,2.83
2022-08-05T20:44:29.468Z,3.00
2022-08-05T20:47:03.996Z,3.10
2022-08-05T20:49:39.296Z,3.23
2022-08-05T20:52:10.795Z,2.87
2022-08-05T20:55:15.861Z,2.73
2022-08-05T20:57:44.135Z,3.07
2022-08-05T21:00:41.068Z,2.80
2022-08-05T21:03:08.121Z,2.87
2022-08-05T21:05:53.524Z,3.00
2022-08-05T21:08:32.926Z,6.60
2022-08-05T21:12:06.504Z,2.93
2022-08-05T21:14:02.846Z,2.73
2022-08-05T21:16:33.433Z,3.37
2022-08-05T21:19:04.745Z,2.97
2022-08-05T21:21:43.723Z,3.73
2022-08-05T21:24:15.190Z,2.87
2022-08-05T21:26:47.228Z,3.30
2022-08-05T21:29:20.647Z,3.47
2022-08-05T21:31:55.979Z,2.63
2022-08-05T21:34:24.918Z,2.80
2022-08-05T21:36:54.259Z,3.17
2022-08-05T21:39:26.675Z,2.80
2022-08-05T21:42:01.515Z,2.70
2022-08-05T21:44:31.027Z,3.00
2022-08-05T21:47:01.432Z,2.90
2022-08-05T21:49:48.461Z,3.00
2022-08-05T21:52:27.451Z,2.80
2022-08-05T21:54:56.743Z,2.83
2022-08-05T21:57:32.582Z,3.30
2022-08-05T22:00:06.921Z,3.23
2022-08-05T22:02:42.531Z,3.13
2022-08-05T22:05:15.937Z,3.00
2022-08-05T22:07:58.794Z,2.80
2022-08-05T22:10:29.311Z,2.90
2022-08-05T22:13:09.322Z,3.10
2022-08-05T22:16:00.919Z,2.90
2022-08-05T22:18:29.118Z,2.90
2022-08-05T22:20:59.070Z,2.90
2022-08-05T22:24:02.815Z,3.30
2022-08-05T22:26:54.034Z,2.77
2022-08-05T22:29:26.541Z,3.20
2022-08-05T22:32:02.890Z,2.97
2022-08-05T22:34:35.153Z,3.00
2022-08-05T22:37:04.003Z,3.13
2022-08-05T22:39:34.372Z,3.10
2022-08-05T22:42:09.721Z,3.67
2022-08-05T22:44:53.542Z,3.00
2022-08-05T22:47:30.667Z,2.93
2022-08-05T22:50:21.445Z,3.03
2022-08-05T22:52:52.733Z,3.23
2022-08-05T22:55:23.844Z,3.23
2022-08-05T22:57:59.284Z,2.83
2022-08-05T23:00:29.195Z,2.90
2022-08-05T23:03:04.374Z,2.90
2022-08-05T23:05:31.249Z,3.40
2022-08-05T23:08:06.200Z,2.77
2022-08-05T23:10:35.626Z,3.60
2022-08-05T23:13:02.497Z,3.20
2022-08-05T23:15:35.130Z,3.20
2022-08-05T23:18:11.808Z,3.07
2022-08-05T23:20:43.388Z,2.90
2022-08-05T23:23:10.920Z,2.70
2022-08-05T23:25:51.089Z,2.87
2022-08-05T23:28:28.659Z,3.20
2022-08-05T23:30:56.671Z,2.90
2022-08-05T23:34:05.545Z,2.83
2022-08-05T23:36:28.294Z,2.80
2022-08-05T23:38:57.609Z,2.87
2022-08-05T23:41:27.481Z,2.80
2022-08-05T23:44:08.708Z,2.80
2022-08-05T23:46:39.365Z,2.90
2022-08-05T23:49:16.850Z,2.87
2022-08-05T23:52:10.696Z,3.00
2022-08-05T23:54:39.914Z,2.80
2022-08-05T23:57:08.298Z,2.80
